createdAt,value
2023-04-09T00:04:16.044Z,22.0
2023-04-09T00:09:22.212Z,22.0
2023-04-09T00:14:28.424Z,22.0
2023-04-09T00:19:34.628Z,22.0
2023-04-09T00:24:40.834Z,22.0
2023-04-09T00:29:47.037Z,22.0
2023-04-09T00:34:52.284Z,23.0
2023-04-09T00:39:58.494Z,24.0
2023-04-09T00:45:03.773Z,25.0
2023-04-09T00:50:09.937Z,25.0
2023-04-09T00:55:16.134Z,25.0
2023-04-09T01:00:22.356Z,26.0
2023-04-09T01:05:28.551Z,27.0
2023-04-09T01:10:34.758Z,27.0
2023-04-09T01:15:40.986Z,27.0
2023-04-09T01:20:47.169Z,28.0
2023-04-09T01:25:53.389Z,27.0
2023-04-09T01:30:59.673Z,28.0
2023-04-09T01:36:05.925Z,28.0
2023-04-09T01:41:12.003Z,28.0
2023-04-09T01:46:18.252Z,28.0
2023-04-09T01:51:24.433Z,27.0
2023-04-09T01:56:30.626Z,29.0
2023-04-09T02:01:36.958Z,29.0
2023-04-09T02:06:43.050Z,30.0
2023-04-09T02:11:49.259Z,30.0
2023-04-09T02:16:55.479Z,31.0
2023-04-09T02:22:01.689Z,31.0
2023-04-09T02:27:07.893Z,30.0
2023-04-09T02:32:13.126Z,31.0
2023-04-09T02:37:19.321Z,30.0
2023-04-09T02:42:24.556Z,29.0
2023-04-09T02:47:30.789Z,31.0
2023-04-09T02:52:36.983Z,29.0
2023-04-09T02:57:43.211Z,29.0
2023-04-09T03:02:49.540Z,29.5
2023-04-09T03:07:55.599Z,30.0
2023-04-09T03:13:01.823Z,29.0
2023-04-09T03:18:08.048Z,29.0
2023-04-09T03:23:14.231Z,25.0
2023-04-09T03:28:20.451Z,24.0
2023-04-09T03:33:26.650Z,25.0
2023-04-09T03:38:32.977Z,23.0
2023-04-09T03:43:39.060Z,23.0
2023-04-09T03:48:45.264Z,23.0
2023-04-09T03:53:51.471Z,23.5
2023-04-09T03:58:57.678Z,23.0
2023-04-09T04:04:03.994Z,22.0
2023-04-09T04:09:10.096Z,23.0
2023-04-09T04:14:16.302Z,23.0
2023-04-09T04:19:22.515Z,23.0
2023-04-09T04:24:28.723Z,23.0
2023-04-09T04:29:33.962Z,23.0
2023-04-09T04:34:39.184Z,24.0
2023-04-09T04:39:45.386Z,24.0
2023-04-09T04:44:51.591Z,24.0
2023-04-09T04:49:57.801Z,25.0
2023-04-09T04:55:04.016Z,26.0
2023-04-09T05:00:10.214Z,26.0
2023-04-09T05:05:16.437Z,25.0
2023-04-09T05:10:22.657Z,26.0
2023-04-09T05:20:35.066Z,26.0
2023-04-09T05:25:41.248Z,26.5
2023-04-09T05:30:47.512Z,26.0
2023-04-09T05:35:53.702Z,26.0
2023-04-09T05:40:59.886Z,26.0
2023-04-09T05:46:06.121Z,26.0
2023-04-09T05:51:12.307Z,27.0
2023-04-09T05:56:18.506Z,26.0
2023-04-09T06:01:24.720Z,25.0
2023-04-09T06:06:30.947Z,26.0
2023-04-09T06:11:37.154Z,27.0
2023-04-09T06:16:43.351Z,26.0
2023-04-09T06:21:48.582Z,26.5
2023-04-09T06:26:54.790Z,26.0
2023-04-09T06:32:00.991Z,26.0
2023-04-09T06:37:07.201Z,27.0
2023-04-09T06:42:13.408Z,27.0
2023-04-09T06:47:19.621Z,27.0
2023-04-09T06:52:25.842Z,27.0
2023-04-09T06:57:32.043Z,27.0
2023-04-09T07:07:44.644Z,26.0
2023-04-09T07:12:50.660Z,26.0
2023-04-09T07:17:56.908Z,26.0
2023-04-09T07:23:03.285Z,26.0
2023-04-09T07:28:09.277Z,25.0
2023-04-09T07:33:15.484Z,25.0
2023-04-09T07:38:21.695Z,24.0
2023-04-09T07:43:27.941Z,24.0
2023-04-09T07:48:34.134Z,24.0
2023-04-09T07:53:40.383Z,23.0
2023-04-09T07:58:46.526Z,22.0
2023-04-09T08:03:52.943Z,22.0
2023-04-09T08:08:58.952Z,21.0
2023-04-09T08:14:04.180Z,20.0
2023-04-09T08:19:10.414Z,20.0
2023-04-09T08:24:15.669Z,18.0
2023-04-09T08:29:21.865Z,17.0
2023-04-09T08:34:27.091Z,15.0
2023-04-09T08:39:33.338Z,15.0
2023-04-09T08:44:39.518Z,15.0
2023-04-09T08:49:45.723Z,15.0
2023-04-09T08:54:51.966Z,15.0
2023-04-09T08:59:58.167Z,15.0
2023-04-09T09:05:04.374Z,15.0
2023-04-09T09:10:10.908Z,14.0
2023-04-09T09:15:16.903Z,15.0
2023-04-09T09:20:22.999Z,13.0
2023-04-09T09:25:29.201Z,14.0
2023-04-09T09:30:35.421Z,13.0
2023-04-09T09:35:41.631Z,12.0
2023-04-09T09:40:47.830Z,12.0
2023-04-09T09:45:54.059Z,10.0
2023-04-09T09:51:00.238Z,11.0
2023-04-09T09:56:06.446Z,11.0
2023-04-09T10:01:12.734Z,12.0
2023-04-09T10:06:18.872Z,12.0
2023-04-09T10:11:25.096Z,13.0
2023-04-09T10:16:31.503Z,12.0
2023-04-09T10:21:36.530Z,11.0
2023-04-09T10:26:42.752Z,11.0
2023-04-09T10:31:47.970Z,11.0
2023-04-09T10:36:54.170Z,11.0
2023-04-09T10:42:00.384Z,11.0
2023-04-09T10:47:06.580Z,10.0
2023-04-09T10:52:12.800Z,11.0
2023-04-09T10:57:19.116Z,9.0
2023-04-09T11:02:25.300Z,10.0
2023-04-09T11:07:31.423Z,9.0
2023-04-09T11:12:37.644Z,9.0
2023-04-09T11:17:43.883Z,9.0
2023-04-09T11:22:50.046Z,9.0
2023-04-09T11:27:56.342Z,8.0
2023-04-09T11:33:02.550Z,8.0
2023-04-09T11:38:08.799Z,9.0
2023-04-09T11:43:14.869Z,9.0
2023-04-09T11:48:21.081Z,9.0
2023-04-09T11:53:27.345Z,10.0
2023-04-09T11:58:33.501Z,10.0
2023-04-09T12:03:39.985Z,10.0
2023-04-09T12:08:45.924Z,9.0
2023-04-09T12:13:52.131Z,10.0
2023-04-09T12:18:57.366Z,10.0
2023-04-09T12:24:03.579Z,10.0
2023-04-09T12:29:09.781Z,11.0
2023-04-09T12:34:15.993Z,10.0
2023-04-09T12:39:22.222Z,10.0
2023-04-09T12:44:28.417Z,11.0
2023-04-09T12:49:34.614Z,10.0
2023-04-09T12:54:40.834Z,10.0
2023-04-09T12:59:47.038Z,10.0
2023-04-09T13:04:53.244Z,10.0
2023-04-09T13:09:59.457Z,9.0
2023-04-09T13:15:05.669Z,10.0
2023-04-09T13:20:11.867Z,10.0
2023-04-09T13:25:18.071Z,10.0
2023-04-09T13:30:24.292Z,10.0
2023-04-09T13:35:30.623Z,10.0
2023-04-09T13:40:36.754Z,9.0
2023-04-09T13:45:42.910Z,10.0
2023-04-09T13:50:49.111Z,9.0
2023-04-09T13:55:55.323Z,9.0
2023-04-09T14:01:02.925Z,9.0
2023-04-09T14:06:06.792Z,9.0
2023-04-09T14:11:12.972Z,9.0
2023-04-09T14:16:18.256Z,9.0
2023-04-09T14:21:24.418Z,9.0
2023-04-09T14:26:30.656Z,9.0
2023-04-09T14:31:36.862Z,9.0
2023-04-09T14:36:43.044Z,9.0
2023-04-09T14:41:49.258Z,8.0
2023-04-09T14:46:55.541Z,8.0
2023-04-09T14:52:01.741Z,8.0
2023-04-09T14:57:07.883Z,7.0
2023-04-09T15:02:14.310Z,7.0
2023-04-09T15:07:20.305Z,7.0
2023-04-09T15:12:26.519Z,7.0
2023-04-09T15:17:32.760Z,7.0
2023-04-09T15:22:38.928Z,7.0
2023-04-09T15:27:45.183Z,8.0
2023-04-09T15:32:51.352Z,8.0
2023-04-09T15:37:57.568Z,8.0
2023-04-09T15:43:03.762Z,8.0
2023-04-09T15:48:09.990Z,8.0
2023-04-09T15:53:16.167Z,8.0
2023-04-09T15:58:22.388Z,8.0
2023-04-09T16:03:27.620Z,8.0
2023-04-09T16:08:33.824Z,8.0
2023-04-09T16:13:39.062Z,8.0
2023-04-09T16:18:45.278Z,7.0
2023-04-09T16:23:51.541Z,7.0
2023-04-09T16:28:57.689Z,7.0
2023-04-09T16:34:03.900Z,8.0
2023-04-09T16:39:10.209Z,8.0
2023-04-09T16:44:16.303Z,7.0
2023-04-09T16:49:22.524Z,6.0
2023-04-09T16:54:28.723Z,7.0
2023-04-09T17:04:41.146Z,7.0
2023-04-09T17:09:47.350Z,6.5
2023-04-09T17:14:53.564Z,7.0
2023-04-09T17:19:59.771Z,6.0
2023-04-09T17:25:05.980Z,7.0
2023-04-09T17:30:12.184Z,8.0
2023-04-09T17:35:18.402Z,8.0
2023-04-09T17:40:24.602Z,9.0
2023-04-09T17:45:30.813Z,9.0
2023-04-09T17:50:37.020Z,8.0
2023-04-09T17:55:43.234Z,9.0
2023-04-09T18:00:49.440Z,9.0
2023-04-09T18:05:54.666Z,9.0
2023-04-09T18:11:12.311Z,9.0
2023-04-09T18:16:06.172Z,9.0
2023-04-09T18:21:12.339Z,9.0
2023-04-09T18:26:18.524Z,9.0
2023-04-09T18:31:24.774Z,9.0
2023-04-09T18:36:30.970Z,9.0
2023-04-09T18:41:37.159Z,9.0
2023-04-09T18:46:43.427Z,9.0
2023-04-09T18:51:49.576Z,9.0
2023-04-09T18:56:55.786Z,9.0
2023-04-09T19:02:02.078Z,9.0
2023-04-09T19:07:08.251Z,9.0
2023-04-09T19:12:14.436Z,10.0
2023-04-09T19:17:20.656Z,10.0
2023-04-09T19:22:26.877Z,10.0
2023-04-09T19:27:33.091Z,10.0
2023-04-09T19:32:39.332Z,10.0
2023-04-09T19:37:45.587Z,10.0
2023-04-09T19:42:51.759Z,9.0
2023-04-09T19:47:57.988Z,10.0
2023-04-09T19:53:04.171Z,10.0
2023-04-09T19:58:10.420Z,10.0
2023-04-09T20:03:15.847Z,10.0
2023-04-09T20:08:21.806Z,10.0
2023-04-09T20:13:27.046Z,10.0
2023-04-09T20:18:33.264Z,11.0
2023-04-09T20:23:39.482Z,11.0
2023-04-09T20:28:45.677Z,10.5
2023-04-09T20:33:51.887Z,10.0
2023-04-09T20:38:58.095Z,9.0
2023-04-09T20:44:04.311Z,9.0
2023-04-09T20:49:10.501Z,10.0
2023-04-09T20:54:16.736Z,10.0
2023-04-09T20:59:22.924Z,9.0
2023-04-09T21:04:29.344Z,9.0
2023-04-09T21:09:35.344Z,10.0
2023-04-09T21:14:41.540Z,9.0
2023-04-09T21:19:47.754Z,10.0
2023-04-09T21:24:53.982Z,9.0
2023-04-09T21:30:00.182Z,10.0
2023-04-09T21:35:06.399Z,10.0
2023-04-09T21:40:11.629Z,10.0
2023-04-09T21:45:17.837Z,10.0
2023-04-09T21:50:24.035Z,10.0
2023-04-09T21:55:30.251Z,10.0
2023-04-09T22:00:35.468Z,10.0
2023-04-09T22:05:41.686Z,9.0
2023-04-09T22:10:46.930Z,9.0
2023-04-09T22:15:53.232Z,10.0
2023-04-09T22:20:59.338Z,10.0
2023-04-09T22:26:05.554Z,10.0
2023-04-09T22:31:11.821Z,9.0
2023-04-09T22:36:17.968Z,10.0
2023-04-09T22:41:24.159Z,10.0
2023-04-09T22:46:30.481Z,10.0
2023-04-09T22:51:36.603Z,9.0
2023-04-09T22:56:42.783Z,9.0
2023-04-09T23:01:49.078Z,9.0
2023-04-09T23:06:55.217Z,9.0
2023-04-09T23:12:01.427Z,8.0
2023-04-09T23:17:07.610Z,8.5
2023-04-09T23:22:13.821Z,8.0
2023-04-09T23:27:20.047Z,8.0
2023-04-09T23:32:26.279Z,9.0
2023-04-09T23:37:32.446Z,9.0
2023-04-09T23:42:38.669Z,11.0
2023-04-09T23:47:44.901Z,13.0
2023-04-09T23:52:51.083Z,14.0
2023-04-09T23:57:56.319Z,10.0
